createdAt,value
2023-05-05T00:02:07.398Z,72.50
2023-05-05T00:04:34.137Z,72.60
2023-05-05T00:07:00.770Z,72.80
2023-05-05T00:09:27.390Z,72.40
2023-05-05T00:11:54.016Z,72.70
2023-05-05T00:14:20.722Z,72.30
2023-05-05T00:16:47.309Z,72.50
2023-05-05T00:19:13.930Z,72.40
2023-05-05T00:21:40.480Z,72.70
2023-05-05T00:24:07.106Z,73.40
2023-05-05T00:26:33.662Z,73.10
2023-05-05T00:29:00.209Z,72.70
2023-05-05T00:31:26.889Z,73.30
2023-05-05T00:33:53.471Z,72.90
2023-05-05T00:36:20.118Z,72.50
2023-05-05T00:38:46.649Z,73.20
2023-05-05T00:41:13.619Z,73.10
2023-05-05T00:43:40.327Z,73.20
2023-05-05T00:46:07.063Z,73.00
2023-05-05T00:48:33.885Z,73.00
2023-05-05T00:51:00.504Z,74.00
2023-05-05T00:53:27.107Z,73.40
2023-05-05T00:55:53.628Z,73.50
2023-05-05T00:58:20.244Z,73.50
2023-05-05T01:00:46.807Z,73.20
2023-05-05T01:03:15.236Z,73.20
2023-05-05T01:05:41.915Z,73.40
2023-05-05T01:08:09.380Z,72.90
2023-05-05T01:10:36.797Z,73.30
2023-05-05T01:13:03.645Z,73.60
2023-05-05T01:15:30.266Z,72.90
2023-05-05T01:17:56.962Z,73.20
2023-05-05T01:20:23.558Z,73.10
2023-05-05T01:22:50.121Z,73.50
2023-05-05T01:25:17.778Z,73.50
2023-05-05T01:27:44.849Z,73.60
2023-05-05T01:30:11.491Z,73.40
2023-05-05T01:32:38.049Z,73.70
2023-05-05T01:35:04.718Z,73.10
2023-05-05T01:37:31.396Z,73.40
2023-05-05T01:39:58.079Z,73.10
2023-05-05T01:42:24.600Z,73.00
2023-05-05T01:44:51.257Z,73.30
2023-05-05T01:47:17.841Z,73.40
2023-05-05T01:49:44.411Z,73.20
2023-05-05T01:52:10.929Z,73.20
2023-05-05T01:54:37.870Z,73.60
2023-05-05T01:57:04.856Z,73.60
2023-05-05T01:59:31.567Z,73.80
2023-05-05T02:01:58.260Z,74.20
2023-05-05T02:04:24.790Z,75.00
2023-05-05T02:06:53.149Z,73.30
2023-05-05T02:09:19.930Z,73.60
2023-05-05T02:11:46.445Z,73.20
2023-05-05T02:14:13.016Z,73.20
2023-05-05T02:16:41.132Z,73.70
2023-05-05T02:19:07.697Z,73.90
2023-05-05T02:21:34.271Z,73.80
2023-05-05T02:24:00.876Z,74.30
2023-05-05T02:26:27.573Z,73.70
2023-05-05T02:28:54.225Z,73.70
2023-05-05T02:31:21.237Z,73.90
2023-05-05T02:33:47.870Z,74.50
2023-05-05T02:36:14.380Z,74.60
2023-05-05T02:38:41.039Z,74.30
2023-05-05T02:41:07.566Z,74.60
2023-05-05T02:43:34.107Z,74.50
2023-05-05T02:46:00.728Z,74.90
2023-05-05T02:48:29.568Z,74.80
2023-05-05T02:50:56.433Z,75.10
2023-05-05T02:53:23.082Z,75.00
2023-05-05T02:55:49.618Z,75.10
2023-05-05T02:58:16.157Z,75.20
2023-05-05T03:00:42.677Z,75.40
2023-05-05T03:03:14.296Z,75.50
2023-05-05T03:05:41.084Z,75.60
2023-05-05T03:08:07.608Z,75.60
2023-05-05T03:10:34.176Z,75.50
2023-05-05T03:13:00.905Z,76.10
2023-05-05T03:15:27.483Z,76.00
2023-05-05T03:17:54.151Z,76.20
2023-05-05T03:20:20.708Z,76.30
2023-05-05T03:22:47.518Z,76.30
2023-05-05T03:25:14.057Z,76.40
2023-05-05T03:27:40.641Z,76.60
2023-05-05T03:30:07.549Z,76.20
2023-05-05T03:32:34.369Z,76.40
2023-05-05T03:35:00.942Z,76.50
2023-05-05T03:37:27.484Z,76.50
2023-05-05T03:39:54.413Z,76.60
2023-05-05T03:42:21.050Z,76.30
2023-05-05T03:44:47.591Z,76.80
2023-05-05T03:47:14.183Z,77.00
2023-05-05T03:49:40.881Z,76.80
2023-05-05T03:52:07.481Z,77.10
2023-05-05T03:54:33.993Z,77.20
2023-05-05T03:57:00.590Z,77.40
2023-05-05T03:59:27.090Z,76.90
2023-05-05T04:01:53.716Z,77.10
2023-05-05T04:04:20.401Z,77.20
2023-05-05T04:06:46.962Z,77.40
2023-05-05T04:09:14.505Z,77.90
2023-05-05T04:11:41.049Z,78.40
2023-05-05T04:14:07.584Z,82.20
2023-05-05T04:16:34.216Z,82.40
2023-05-05T04:19:00.815Z,83.10
2023-05-05T04:21:27.368Z,83.20
2023-05-05T04:23:53.949Z,84.00
2023-05-05T04:26:20.851Z,84.90
2023-05-05T04:28:47.401Z,85.70
2023-05-05T04:31:14.004Z,86.30
2023-05-05T04:33:40.760Z,86.60
2023-05-05T04:36:07.302Z,87.20
2023-05-05T04:38:33.850Z,86.60
2023-05-05T04:41:00.551Z,85.40
2023-05-05T04:43:27.112Z,85.30
2023-05-05T04:45:53.804Z,85.30
2023-05-05T04:48:20.776Z,85.40
2023-05-05T04:50:47.606Z,85.80
2023-05-05T04:53:14.154Z,85.70
2023-05-05T04:55:40.758Z,85.90
2023-05-05T04:58:07.258Z,85.80
2023-05-05T05:00:33.774Z,85.20
2023-05-05T05:03:00.413Z,85.60
2023-05-05T05:05:27.117Z,87.10
2023-05-05T05:07:53.616Z,88.30
2023-05-05T05:10:20.141Z,88.80
2023-05-05T05:12:46.687Z,89.10
2023-05-05T05:15:15.580Z,88.80
2023-05-05T05:17:42.337Z,89.70
2023-05-05T05:20:09.173Z,90.00
2023-05-05T05:22:38.658Z,90.30
2023-05-05T05:25:05.757Z,90.80
2023-05-05T05:27:32.306Z,90.90
2023-05-05T05:29:58.852Z,91.10
2023-05-05T05:32:25.370Z,91.00
2023-05-05T05:34:51.886Z,90.70
2023-05-05T05:37:18.428Z,90.90
2023-05-05T05:39:44.963Z,90.60
2023-05-05T05:42:11.521Z,90.70
2023-05-05T05:44:38.087Z,90.80
2023-05-05T05:47:04.604Z,91.10
2023-05-05T05:49:31.152Z,91.20
2023-05-05T05:51:57.686Z,91.30
2023-05-05T05:54:24.241Z,91.30
2023-05-05T05:56:51.131Z,91.50
2023-05-05T05:59:17.658Z,91.60
2023-05-05T06:01:44.193Z,91.70
2023-05-05T06:04:10.816Z,91.80
2023-05-05T06:06:37.384Z,92.20
2023-05-05T06:09:03.885Z,92.50
2023-05-05T06:11:30.463Z,92.40
2023-05-05T06:13:57.036Z,93.00
2023-05-05T06:16:23.601Z,93.30
2023-05-05T06:18:50.448Z,93.20
2023-05-05T06:21:17.465Z,93.60
2023-05-05T06:23:43.994Z,94.00
2023-05-05T06:26:10.651Z,94.40
2023-05-05T06:28:37.407Z,94.60
2023-05-05T06:31:04.019Z,94.40
2023-05-05T06:33:30.692Z,95.10
2023-05-05T06:35:57.226Z,95.10
2023-05-05T06:38:23.757Z,96.00
2023-05-05T06:40:50.507Z,96.00
2023-05-05T06:43:17.021Z,96.30
2023-05-05T06:45:43.979Z,97.10
2023-05-05T06:48:10.578Z,98.10
2023-05-05T06:50:37.094Z,98.70
2023-05-05T06:53:03.604Z,99.50
2023-05-05T06:55:30.300Z,99.70
2023-05-05T06:57:56.844Z,99.90
2023-05-05T07:00:23.360Z,99.90
2023-05-05T07:02:49.924Z,99.90
2023-05-05T07:05:16.486Z,99.90
2023-05-05T07:07:43.044Z,99.90
2023-05-05T07:10:09.899Z,99.90
2023-05-05T07:12:36.697Z,99.80
2023-05-05T07:15:12.278Z,99.90
2023-05-05T07:17:45.984Z,99.60
2023-05-05T07:20:12.839Z,99.70
2023-05-05T07:22:39.385Z,99.90
2023-05-05T07:25:06.097Z,99.70
2023-05-05T07:27:32.636Z,99.40
2023-05-05T07:29:59.210Z,99.20
2023-05-05T07:32:26.010Z,98.80
2023-05-05T07:34:52.592Z,99.40
2023-05-05T07:37:19.161Z,99.10
2023-05-05T07:39:47.531Z,98.80
2023-05-05T07:42:14.138Z,98.50
2023-05-05T07:44:40.716Z,98.60
2023-05-05T07:47:07.280Z,98.60
2023-05-05T07:49:33.836Z,97.90
2023-05-05T07:52:00.396Z,97.90
2023-05-05T07:54:27.246Z,98.50
2023-05-05T07:56:54.025Z,98.60
2023-05-05T07:59:20.710Z,98.10
2023-05-05T08:01:47.288Z,97.60
2023-05-05T08:04:13.983Z,97.70
2023-05-05T08:06:40.615Z,97.40
2023-05-05T08:09:07.593Z,97.30
2023-05-05T08:11:34.102Z,97.60
2023-05-05T08:14:00.658Z,96.80
2023-05-05T08:16:27.262Z,97.10
2023-05-05T08:18:53.877Z,96.80
2023-05-05T08:21:20.554Z,98.20
2023-05-05T08:23:47.075Z,97.80
2023-05-05T08:26:13.771Z,97.50
2023-05-05T08:28:40.357Z,96.80
2023-05-05T08:31:06.964Z,96.50
2023-05-05T08:33:33.620Z,95.50
2023-05-05T08:36:00.375Z,96.00
2023-05-05T08:41:30.413Z,95.80
2023-05-05T08:44:04.403Z,95.70
2023-05-05T08:46:31.814Z,95.00
2023-05-05T08:48:58.513Z,95.40
2023-05-05T08:51:25.082Z,95.40
2023-05-05T08:53:52.306Z,95.80
2023-05-05T08:56:18.848Z,95.60
2023-05-05T08:58:46.315Z,95.60
2023-05-05T09:01:12.925Z,96.00
2023-05-05T09:03:39.690Z,95.30
2023-05-05T09:06:06.268Z,95.10
2023-05-05T09:08:32.867Z,95.20
2023-05-05T09:10:59.410Z,95.90
2023-05-05T09:13:26.066Z,95.60
2023-05-05T09:15:52.674Z,95.10
2023-05-05T09:18:19.245Z,95.10
2023-05-05T09:20:45.930Z,95.20
2023-05-05T09:23:12.486Z,95.90
2023-05-05T09:25:39.066Z,94.80
2023-05-05T09:28:05.817Z,94.80
2023-05-05T09:30:32.372Z,94.80
2023-05-05T09:32:59.346Z,95.30
2023-05-05T09:35:26.058Z,94.40
2023-05-05T09:37:52.587Z,93.60
2023-05-05T09:40:19.266Z,94.10
2023-05-05T09:42:47.320Z,94.90
2023-05-05T09:45:14.186Z,94.40
2023-05-05T09:47:40.908Z,94.00
2023-05-05T09:50:07.726Z,94.30
2023-05-05T09:52:34.554Z,94.70
2023-05-05T09:55:01.088Z,93.90
2023-05-05T09:57:27.643Z,94.10
2023-05-05T09:59:54.325Z,94.40
2023-05-05T10:02:21.172Z,94.10
2023-05-05T10:04:47.765Z,93.60
2023-05-05T10:07:14.291Z,94.40
2023-05-05T10:09:41.056Z,92.70
2023-05-05T10:12:07.549Z,94.00
2023-05-05T10:14:34.098Z,92.20
2023-05-05T10:17:00.809Z,92.60
2023-05-05T10:19:28.433Z,92.80
2023-05-05T10:21:55.026Z,93.00
2023-05-05T10:24:22.727Z,92.40
2023-05-05T10:26:49.287Z,92.10
2023-05-05T10:29:16.163Z,92.40
2023-05-05T10:31:42.779Z,93.20
2023-05-05T10:34:09.728Z,94.60
2023-05-05T10:36:36.387Z,93.40
2023-05-05T10:39:02.937Z,92.20
2023-05-05T10:41:31.348Z,91.50
2023-05-05T10:43:57.961Z,92.90
2023-05-05T10:46:24.542Z,91.90
2023-05-05T10:48:51.197Z,91.20
2023-05-05T10:51:27.421Z,92.80
2023-05-05T10:53:57.927Z,91.40
2023-05-05T10:56:26.613Z,92.20
2023-05-05T10:59:00.172Z,91.80
2023-05-05T11:01:27.481Z,91.40
2023-05-05T11:03:54.097Z,90.90
2023-05-05T11:06:20.673Z,90.40
2023-05-05T11:08:47.289Z,91.10
2023-05-05T11:11:13.845Z,92.00
2023-05-05T11:13:40.455Z,91.70
2023-05-05T11:16:07.255Z,91.70
2023-05-05T11:18:35.607Z,92.50
2023-05-05T11:21:02.852Z,91.70
2023-05-05T11:23:29.374Z,90.60
2023-05-05T11:25:57.342Z,91.20
2023-05-05T11:28:25.500Z,90.40
2023-05-05T11:30:52.078Z,90.00
2023-05-05T11:33:18.583Z,91.00
2023-05-05T11:35:45.235Z,91.20
2023-05-05T11:38:12.102Z,90.40
2023-05-05T11:40:38.591Z,89.00
2023-05-05T11:43:05.621Z,90.10
2023-05-05T11:45:32.159Z,89.20
2023-05-05T11:47:58.764Z,89.60
2023-05-05T11:50:25.965Z,90.50
2023-05-05T11:52:52.640Z,90.50
2023-05-05T11:55:19.849Z,89.40
2023-05-05T11:57:46.592Z,87.70
2023-05-05T12:00:13.135Z,87.30
2023-05-05T12:02:40.061Z,89.00
2023-05-05T12:05:06.783Z,89.10
2023-05-05T12:07:33.404Z,89.60
2023-05-05T12:09:59.995Z,90.20
2023-05-05T12:12:26.657Z,90.80
2023-05-05T12:14:53.272Z,89.60
2023-05-05T12:17:19.957Z,90.40
2023-05-05T12:19:47.554Z,90.40
2023-05-05T12:22:14.082Z,90.00
2023-05-05T12:24:40.567Z,90.90
2023-05-05T12:27:07.129Z,90.10
2023-05-05T12:29:33.659Z,90.50
2023-05-05T12:32:00.340Z,92.60
2023-05-05T12:34:27.281Z,93.20
2023-05-05T12:36:53.830Z,93.30
2023-05-05T12:39:20.569Z,96.40
2023-05-05T12:41:47.079Z,97.20
2023-05-05T12:44:13.576Z,98.40
2023-05-05T12:46:40.140Z,98.60
2023-05-05T12:49:06.678Z,98.90
2023-05-05T12:51:33.172Z,99.80
2023-05-05T12:53:59.674Z,99.90
2023-05-05T12:56:26.619Z,99.90
2023-05-05T12:58:55.168Z,99.90
2023-05-05T13:01:22.003Z,99.90
2023-05-05T13:03:48.539Z,99.90
2023-05-05T13:06:15.597Z,99.90
2023-05-05T13:08:42.278Z,99.90
2023-05-05T13:11:08.786Z,99.90
2023-05-05T13:13:35.956Z,99.90
2023-05-05T13:16:02.749Z,99.90
2023-05-05T13:18:29.424Z,99.90
2023-05-05T13:20:55.965Z,99.90
2023-05-05T13:23:23.719Z,99.90
2023-05-05T13:25:51.170Z,99.90
2023-05-05T13:28:17.695Z,99.90
2023-05-05T13:30:44.210Z,99.90
2023-05-05T13:33:10.839Z,99.90
2023-05-05T13:35:37.472Z,99.90
2023-05-05T13:38:04.017Z,99.90
2023-05-05T13:40:30.702Z,99.90
2023-05-05T13:42:57.218Z,99.90
2023-05-05T13:45:23.773Z,99.90
2023-05-05T13:47:50.956Z,99.90
2023-05-05T13:50:18.311Z,99.90
2023-05-05T13:52:44.922Z,99.90
2023-05-05T13:55:11.486Z,99.90
2023-05-05T13:57:38.082Z,99.90
2023-05-05T14:00:04.626Z,99.90
2023-05-05T14:02:31.529Z,99.90
2023-05-05T14:04:58.120Z,99.90
2023-05-05T14:07:24.979Z,99.90
2023-05-05T14:09:51.551Z,99.90
2023-05-05T14:12:18.093Z,99.90
2023-05-05T14:14:44.680Z,99.90
2023-05-05T14:17:11.505Z,99.90
2023-05-05T14:19:38.046Z,99.90
2023-05-05T14:22:04.679Z,99.90
2023-05-05T14:24:31.255Z,99.90
2023-05-05T14:26:57.832Z,99.90
2023-05-05T14:29:24.335Z,99.90
2023-05-05T14:31:50.910Z,99.90
2023-05-05T14:34:17.512Z,99.90
2023-05-05T14:36:44.118Z,99.90
2023-05-05T14:39:10.606Z,99.90
2023-05-05T14:41:37.273Z,99.90
2023-05-05T14:44:03.797Z,99.90
2023-05-05T14:46:30.968Z,99.90
2023-05-05T14:48:58.591Z,99.90
2023-05-05T14:51:25.062Z,99.90
2023-05-05T14:53:51.610Z,99.90
2023-05-05T14:56:18.127Z,99.90
2023-05-05T14:58:44.616Z,99.90
2023-05-05T15:01:11.143Z,99.90
2023-05-05T15:03:37.806Z,99.90
2023-05-05T15:06:05.170Z,99.90
2023-05-05T15:08:31.623Z,99.90
2023-05-05T15:10:58.118Z,99.90
2023-05-05T15:13:24.591Z,99.90
2023-05-05T15:15:51.312Z,99.90
2023-05-05T15:18:17.894Z,99.90
2023-05-05T15:20:44.400Z,99.90
2023-05-05T15:23:11.014Z,99.90
2023-05-05T15:25:37.519Z,99.90
2023-05-05T15:28:04.165Z,99.90
2023-05-05T15:30:30.640Z,99.90
2023-05-05T15:32:57.260Z,99.90
2023-05-05T15:35:25.636Z,99.90
2023-05-05T15:37:52.157Z,99.90
2023-05-05T15:40:18.628Z,99.90
2023-05-05T15:42:45.686Z,99.90
2023-05-05T15:45:12.228Z,99.90
2023-05-05T15:47:38.813Z,99.90
2023-05-05T15:50:05.316Z,99.90
2023-05-05T15:52:31.841Z,99.90
2023-05-05T15:54:58.349Z,99.90
2023-05-05T15:57:24.964Z,99.90
2023-05-05T15:59:51.981Z,99.90
2023-05-05T16:02:18.612Z,99.90
2023-05-05T16:04:45.188Z,99.90
2023-05-05T16:07:11.648Z,99.90
2023-05-05T16:09:38.097Z,99.90
2023-05-05T16:12:04.661Z,99.90
2023-05-05T16:14:34.189Z,99.90
2023-05-05T16:17:03.664Z,99.90
2023-05-05T16:19:31.073Z,99.90
2023-05-05T16:21:57.616Z,99.90
2023-05-05T16:24:24.089Z,99.90
2023-05-05T16:26:51.298Z,99.90
2023-05-05T16:29:17.776Z,99.90
2023-05-05T16:31:44.386Z,99.90
2023-05-05T16:34:11.070Z,99.90
2023-05-05T16:36:37.809Z,99.90
2023-05-05T16:39:04.434Z,99.90
2023-05-05T16:41:31.077Z,99.90
2023-05-05T16:43:57.701Z,99.90
2023-05-05T16:46:24.261Z,99.90
2023-05-05T16:48:50.889Z,99.90
2023-05-05T16:51:17.422Z,99.90
2023-05-05T16:53:43.896Z,99.90
2023-05-05T16:56:10.407Z,99.90
2023-05-05T16:58:36.945Z,99.90
2023-05-05T17:01:04.013Z,99.90
2023-05-05T17:03:30.851Z,99.90
2023-05-05T17:05:57.512Z,99.90
2023-05-05T17:08:24.075Z,99.90
2023-05-05T17:10:50.644Z,99.90
2023-05-05T17:13:17.281Z,99.90
2023-05-05T17:15:44.256Z,99.90
2023-05-05T17:18:10.805Z,99.90
2023-05-05T17:20:37.393Z,99.90
2023-05-05T17:23:04.836Z,99.90
2023-05-05T17:25:31.363Z,99.90
2023-05-05T17:27:57.851Z,99.90
2023-05-05T17:30:24.422Z,99.90
2023-05-05T17:32:50.998Z,99.90
2023-05-05T17:35:17.502Z,99.90
2023-05-05T17:37:44.024Z,99.90
2023-05-05T17:40:10.673Z,99.90
2023-05-05T17:42:38.160Z,99.90
2023-05-05T17:45:04.706Z,99.90
2023-05-05T17:47:31.188Z,99.90
2023-05-05T17:49:57.775Z,99.90
2023-05-05T17:52:24.265Z,99.90
2023-05-05T17:54:50.773Z,99.90
2023-05-05T17:57:18.110Z,99.90
2023-05-05T17:59:44.711Z,99.90
2023-05-05T18:02:11.213Z,99.90
2023-05-05T18:04:37.707Z,99.90
2023-05-05T18:07:04.339Z,99.90
2023-05-05T18:09:31.179Z,99.90
2023-05-05T18:11:57.640Z,99.90
2023-05-05T18:14:24.472Z,99.90
2023-05-05T18:16:52.180Z,99.90
2023-05-05T18:19:18.652Z,99.90
2023-05-05T18:21:45.316Z,99.90
2023-05-05T18:24:20.036Z,99.90
2023-05-05T18:26:47.026Z,99.90
2023-05-05T18:29:15.847Z,99.90
2023-05-05T18:31:45.553Z,99.90
2023-05-05T18:34:12.330Z,99.90
2023-05-05T18:36:38.875Z,99.90
2023-05-05T18:39:05.428Z,99.90
2023-05-05T18:41:32.100Z,99.90
2023-05-05T18:43:58.574Z,99.90
2023-05-05T18:46:25.396Z,99.90
2023-05-05T18:48:51.950Z,99.90
2023-05-05T18:51:18.431Z,99.90
2023-05-05T18:53:44.867Z,99.90
2023-05-05T18:56:11.412Z,99.90
2023-05-05T18:58:37.869Z,99.90
2023-05-05T19:01:04.433Z,99.90
2023-05-05T19:03:31.154Z,99.90
2023-05-05T19:05:57.626Z,99.90
2023-05-05T19:08:24.126Z,99.90
2023-05-05T19:10:50.651Z,99.90
2023-05-05T19:13:17.277Z,99.90
2023-05-05T19:15:44.537Z,99.90
2023-05-05T19:18:11.350Z,99.90
2023-05-05T19:20:38.506Z,99.90
2023-05-05T19:23:05.069Z,99.90
2023-05-05T19:25:31.672Z,99.90
2023-05-05T19:27:58.218Z,99.90
2023-05-05T19:30:24.706Z,99.90
2023-05-05T19:32:51.179Z,99.90
2023-05-05T19:35:17.621Z,99.90
2023-05-05T19:37:44.115Z,99.90
2023-05-05T19:40:10.962Z,99.90
2023-05-05T19:42:37.800Z,99.90
2023-05-05T19:45:04.302Z,99.90
2023-05-05T19:47:31.234Z,99.90
2023-05-05T19:49:57.763Z,99.90
2023-05-05T19:52:24.409Z,99.90
2023-05-05T19:54:51.079Z,99.90
2023-05-05T19:57:17.677Z,99.90
2023-05-05T19:59:44.258Z,99.90
2023-05-05T20:02:12.054Z,99.90
2023-05-05T20:04:38.527Z,99.90
2023-05-05T20:07:05.259Z,99.90
2023-05-05T20:09:31.772Z,99.90
2023-05-05T20:11:58.261Z,99.90
2023-05-05T20:14:24.719Z,99.90
2023-05-05T20:16:51.246Z,99.90
2023-05-05T20:19:18.220Z,99.90
2023-05-05T20:21:44.741Z,99.90
2023-05-05T20:24:11.181Z,99.90
2023-05-05T20:26:37.669Z,99.90
2023-05-05T20:29:04.122Z,99.90
2023-05-05T20:31:30.704Z,99.90
2023-05-05T20:33:57.237Z,99.90
2023-05-05T20:36:26.151Z,99.90
2023-05-05T20:38:52.620Z,99.90
2023-05-05T20:41:19.068Z,99.90
2023-05-05T20:43:45.534Z,99.90
2023-05-05T20:46:13.290Z,99.90
2023-05-05T20:48:42.461Z,99.90
2023-05-05T20:51:09.745Z,99.90
2023-05-05T20:53:36.241Z,99.90
2023-05-05T20:56:02.673Z,99.90
2023-05-05T20:58:29.300Z,99.90
2023-05-05T21:00:55.813Z,99.90
2023-05-05T21:03:22.334Z,99.90
2023-05-05T21:05:48.927Z,99.90
2023-05-05T21:08:15.492Z,99.90
2023-05-05T21:10:41.971Z,99.90
2023-05-05T21:13:08.546Z,99.90
2023-05-05T21:15:36.342Z,99.90
2023-05-05T21:18:03.456Z,99.90
2023-05-05T21:20:29.987Z,99.90
2023-05-05T21:22:56.472Z,99.90
2023-05-05T21:25:22.975Z,99.90
2023-05-05T21:27:49.418Z,99.90
2023-05-05T21:30:16.482Z,99.90
2023-05-05T21:32:43.394Z,99.90
2023-05-05T21:35:10.307Z,99.90
2023-05-05T21:37:36.764Z,99.90
2023-05-05T21:40:03.272Z,99.90
2023-05-05T21:42:30.326Z,99.90
2023-05-05T21:44:56.812Z,99.90
2023-05-05T21:47:23.500Z,99.90
2023-05-05T21:49:50.138Z,99.90
2023-05-05T21:52:16.637Z,99.90
2023-05-05T21:54:43.257Z,99.90
2023-05-05T21:57:09.734Z,99.90
2023-05-05T21:59:36.194Z,99.90
2023-05-05T22:02:02.736Z,99.90
2023-05-05T22:04:29.288Z,99.90
2023-05-05T22:06:56.345Z,99.90
2023-05-05T22:09:22.838Z,99.90
2023-05-05T22:11:49.288Z,99.90
2023-05-05T22:14:15.911Z,99.90
2023-05-05T22:16:42.509Z,99.90
2023-05-05T22:19:09.101Z,99.90
2023-05-05T22:21:35.559Z,99.90
2023-05-05T22:24:02.118Z,99.90
2023-05-05T22:26:28.619Z,99.90
2023-05-05T22:28:55.151Z,99.90
2023-05-05T22:31:21.628Z,99.90
2023-05-05T22:33:48.145Z,99.90
2023-05-05T22:36:14.972Z,99.90
2023-05-05T22:38:42.102Z,99.90
2023-05-05T22:41:08.567Z,99.90
2023-05-05T22:43:35.033Z,99.90
2023-05-05T22:46:01.551Z,99.90
2023-05-05T22:48:28.072Z,99.90
2023-05-05T22:50:54.554Z,99.90
2023-05-05T22:53:21.025Z,99.90
2023-05-05T22:55:47.521Z,99.90
2023-05-05T22:58:13.997Z,99.90
2023-05-05T23:00:40.585Z,99.90
2023-05-05T23:03:07.296Z,99.90
2023-05-05T23:05:34.410Z,99.90
2023-05-05T23:08:01.218Z,99.90
2023-05-05T23:10:27.728Z,99.90
2023-05-05T23:12:54.271Z,99.90
2023-05-05T23:15:21.535Z,99.90
2023-05-05T23:17:48.198Z,99.90
2023-05-05T23:20:15.124Z,99.90
2023-05-05T23:22:41.643Z,99.90
2023-05-05T23:25:08.469Z,99.90
2023-05-05T23:27:35.115Z,99.90
2023-05-05T23:30:01.547Z,99.90
2023-05-05T23:32:28.269Z,99.90
2023-05-05T23:34:54.768Z,99.90
2023-05-05T23:37:21.225Z,99.90
2023-05-05T23:39:47.687Z,99.90
2023-05-05T23:42:14.171Z,99.90
2023-05-05T23:44:40.628Z,99.90
2023-05-05T23:47:07.096Z,99.90
2023-05-05T23:49:33.571Z,99.90
2023-05-05T23:52:00.574Z,99.90
2023-05-05T23:54:27.111Z,99.90
2023-05-05T23:56:53.545Z,99.90
2023-05-05T23:59:20.119Z,99.90
